TimePDT,TemperatureF,Dew PointF,Humidity,Sea Level PressureIn,VisibilityMPH,Wind Direction,Wind SpeedMPH,Gust SpeedMPH,PrecipitationIn,Events,Conditions,WindDirDegrees,DateUTC
12:56 AM,66.9,55.9,68,29.93,10.0,NNW,9.2,-,N/A,,Clear,330,2013-09-06 07:56:00
1:56 AM,66.9,52.0,59,29.94,10.0,NW,8.1,-,N/A,,Partly Cloudy,320,2013-09-06 08:56:00
2:56 AM,64.9,52.0,63,29.95,10.0,NW,6.9,-,N/A,,Mostly Cloudy,320,2013-09-06 09:56:00
3:56 AM,63.0,53.1,70,29.96,10.0,Calm,Calm,-,N/A,,Partly Cloudy,0,2013-09-06 10:56:00
4:56 AM,63.0,54.0,72,29.98,10.0,Calm,Calm,-,N/A,,Overcast,0,2013-09-06 11:56:00
5:56 AM,63.0,55.0,75,29.99,10.0,Calm,Calm,-,N/A,,Overcast,0,2013-09-06 12:56:00
6:56 AM,64.0,54.0,70,30.02,10.0,East,3.5,-,N/A,,Overcast,80,2013-09-06 13:56:00
7:56 AM,64.0,54.0,70,30.04,10.0,East,3.5,-,N/A,,Overcast,90,2013-09-06 14:56:00
8:56 AM,64.9,54.0,68,30.05,10.0,East,6.9,-,N/A,,Overcast,80,2013-09-06 15:56:00
9:56 AM,66.0,54.0,65,30.06,10.0,NE,4.6,-,0.00,,Overcast,50,2013-09-06 16:56:00
10:56 AM,66.9,53.1,61,30.07,10.0,Calm,Calm,-,N/A,,Overcast,0,2013-09-06 17:56:00
11:56 AM,69.1,52.0,54,30.07,10.0,Calm,Calm,-,N/A,,Mostly Cloudy,0,2013-09-06 18:56:00
12:56 PM,70.0,52.0,53,30.05,10.0,SSE,3.5,-,N/A,,Clear,150,2013-09-06 19:56:00
1:56 PM,73.0,52.0,48,30.04,10.0,Variable,3.5,-,N/A,,Clear,0,2013-09-06 20:56:00
2:56 PM,75.9,51.1,42,30.03,10.0,North,4.6,-,N/A,,Partly Cloudy,360,2013-09-06 21:56:00
3:56 PM,73.0,50.0,44,30.04,10.0,NNW,11.5,20.7,N/A,,Scattered Clouds,330,2013-09-06 22:56:00
4:56 PM,72.0,48.0,43,30.04,10.0,NNW,11.5,-,N/A,,Overcast,330,2013-09-06 23:56:00
5:56 PM,71.1,48.9,45,30.05,10.0,NNW,6.9,-,N/A,,Overcast,340,2013-09-07 00:56:00
6:56 PM,70.0,50.0,49,30.05,10.0,North,4.6,-,N/A,,Overcast,360,2013-09-07 01:56:00
7:56 PM,69.1,51.1,53,30.07,10.0,NNW,6.9,-,N/A,,Overcast,330,2013-09-07 02:56:00
8:56 PM,68.0,52.0,56,30.09,10.0,North,5.8,-,N/A,,Overcast,350,2013-09-07 03:56:00
9:56 PM,66.9,53.1,61,30.10,10.0,North,4.6,-,N/A,,Overcast,360,2013-09-07 04:56:00
10:56 PM,66.0,53.1,63,30.11,10.0,North,3.5,-,N/A,,Overcast,10,2013-09-07 05:56:00
11:56 PM,66.0,52.0,60,30.10,10.0,Calm,Calm,-,N/A,,Overcast,0,2013-09-07 06:56:00